createdAt,value
2019-02-16T00:00:49.205Z,6.90
2019-02-16T00:03:18.519Z,7.00
2019-02-16T00:05:47.506Z,7.00
2019-02-16T00:08:16.526Z,7.00
2019-02-16T00:10:45.325Z,7.10
2019-02-16T00:13:14.061Z,7.10
2019-02-16T00:15:43.248Z,7.00
2019-02-16T00:18:11.974Z,7.00
2019-02-16T00:21:04.057Z,7.00
2019-02-16T00:23:30.946Z,7.00
2019-02-16T00:25:59.950Z,6.90
2019-02-16T00:28:28.918Z,6.90
2019-02-16T00:30:57.654Z,6.80
2019-02-16T00:33:26.434Z,6.70
2019-02-16T00:35:55.248Z,6.60
2019-02-16T00:38:23.965Z,6.60
2019-02-16T00:40:52.734Z,6.50
2019-02-16T00:43:21.770Z,6.50
2019-02-16T00:45:50.789Z,6.50
2019-02-16T00:48:19.742Z,6.40
2019-02-16T00:50:48.732Z,6.40
2019-02-16T00:53:17.483Z,6.30
2019-02-16T00:55:46.277Z,6.30
2019-02-16T00:58:15.324Z,6.30
2019-02-16T01:00:44.108Z,6.30
2019-02-16T01:03:13.095Z,6.20
2019-02-16T01:05:42.288Z,6.10
2019-02-16T01:08:11.272Z,6.10
2019-02-16T01:10:40.370Z,6.10
2019-02-16T01:13:09.077Z,6.00
2019-02-16T01:15:38.064Z,5.90
2019-02-16T01:18:06.770Z,5.90
2019-02-16T01:20:35.534Z,5.90
2019-02-16T01:23:04.310Z,5.90
2019-02-16T01:25:33.563Z,5.90
2019-02-16T01:28:02.521Z,5.90
2019-02-16T01:30:31.584Z,5.90
2019-02-16T01:33:00.824Z,5.90
2019-02-16T01:35:29.528Z,5.90
2019-02-16T01:37:58.265Z,5.90
2019-02-16T01:40:27.006Z,5.90
2019-02-16T01:42:55.807Z,5.90
2019-02-16T01:45:44.056Z,5.70
2019-02-16T01:48:13.786Z,5.70
2019-02-16T01:51:01.731Z,5.50
2019-02-16T01:53:30.741Z,5.50
2019-02-16T01:55:59.464Z,5.50
2019-02-16T01:58:28.277Z,5.40
2019-02-16T02:00:57.086Z,5.30
2019-02-16T02:03:45.024Z,5.30
2019-02-16T02:06:13.821Z,5.20
2019-02-16T02:08:42.556Z,5.20
2019-02-16T02:11:11.301Z,5.20
2019-02-16T02:13:40.046Z,5.20
2019-02-16T02:16:09.329Z,5.10
2019-02-16T02:18:38.020Z,5.20
2019-02-16T02:21:06.959Z,5.10
2019-02-16T02:23:55.165Z,5.20
2019-02-16T02:26:23.872Z,5.20
2019-02-16T02:28:52.597Z,5.20
2019-02-16T02:31:21.532Z,5.10
2019-02-16T02:33:50.544Z,5.10
2019-02-16T02:36:19.256Z,5.10
2019-02-16T02:38:48.456Z,5.20
2019-02-16T02:41:17.166Z,5.20
2019-02-16T02:43:46.118Z,5.20
2019-02-16T02:46:15.164Z,5.30
2019-02-16T02:48:44.136Z,5.30
2019-02-16T02:51:13.150Z,5.30
2019-02-16T02:53:41.900Z,5.20
2019-02-16T02:56:10.920Z,5.20
2019-02-16T02:58:39.868Z,5.10
2019-02-16T03:01:08.820Z,5.20
2019-02-16T03:03:37.809Z,5.10
2019-02-16T03:06:06.755Z,5.20
2019-02-16T03:08:35.685Z,5.20
2019-02-16T03:11:04.488Z,5.20
2019-02-16T03:13:33.191Z,5.10
2019-02-16T03:16:02.206Z,5.10
2019-02-16T03:18:31.202Z,5.10
2019-02-16T03:20:59.898Z,5.10
2019-02-16T03:23:29.464Z,5.00
2019-02-16T03:26:34.487Z,5.00
2019-02-16T03:29:18.108Z,5.00
2019-02-16T03:32:45.985Z,5.00
2019-02-16T03:36:23.401Z,4.80
2019-02-16T03:39:11.535Z,4.80
2019-02-16T03:41:40.848Z,4.70
2019-02-16T03:44:09.905Z,4.60
2019-02-16T03:46:38.912Z,4.60
2019-02-16T03:49:08.134Z,4.60
2019-02-16T03:51:56.119Z,4.50
2019-02-16T03:54:24.816Z,4.40
2019-02-16T03:56:54.029Z,4.40
2019-02-16T03:59:23.470Z,4.30
2019-02-16T04:01:52.208Z,4.30
2019-02-16T04:04:21.151Z,4.30
2019-02-16T04:06:50.130Z,4.30
2019-02-16T04:09:19.320Z,4.20
2019-02-16T04:11:48.292Z,4.20
2019-02-16T04:14:17.032Z,4.20
2019-02-16T04:16:45.773Z,4.10
2019-02-16T04:19:14.829Z,4.10
2019-02-16T04:21:46.019Z,4.10
2019-02-16T04:24:14.722Z,4.00
2019-02-16T04:26:43.693Z,4.00
2019-02-16T04:29:12.914Z,3.90
2019-02-16T04:31:41.893Z,3.80
2019-02-16T04:34:10.869Z,3.80
2019-02-16T04:36:39.860Z,3.80
2019-02-16T04:39:08.603Z,3.70
2019-02-16T04:41:37.561Z,3.70
2019-02-16T04:44:06.541Z,3.70
2019-02-16T04:46:35.269Z,3.60
2019-02-16T04:49:04.421Z,3.70
2019-02-16T04:51:33.359Z,3.60
2019-02-16T04:54:02.073Z,3.60
2019-02-16T04:56:31.306Z,3.70
2019-02-16T04:59:00.301Z,3.70
2019-02-16T05:01:29.022Z,3.70
2019-02-16T05:03:58.021Z,3.70
2019-02-16T05:06:26.982Z,3.70
2019-02-16T05:08:55.939Z,3.70
2019-02-16T05:11:25.162Z,3.70
2019-02-16T05:14:13.355Z,3.60
2019-02-16T05:16:42.084Z,3.60
2019-02-16T05:19:11.043Z,3.50
2019-02-16T05:21:40.073Z,3.50
2019-02-16T05:24:09.023Z,3.50
2019-02-16T05:26:37.746Z,3.50
2019-02-16T05:29:06.733Z,3.50
2019-02-16T05:31:36.424Z,3.50
2019-02-16T05:34:05.381Z,3.50
2019-02-16T05:36:34.170Z,3.50
2019-02-16T05:39:04.678Z,3.40
2019-02-16T05:41:33.407Z,3.50
2019-02-16T05:44:02.386Z,3.40
2019-02-16T05:46:31.107Z,3.40
2019-02-16T05:49:00.138Z,3.40
2019-02-16T05:51:28.916Z,3.50
2019-02-16T05:53:57.944Z,3.50
2019-02-16T05:56:27.563Z,3.40
2019-02-16T05:58:56.374Z,3.40
2019-02-16T06:01:25.562Z,3.40
2019-02-16T06:03:54.777Z,3.40
2019-02-16T06:06:23.554Z,3.40
2019-02-16T06:08:52.507Z,3.40
2019-02-16T06:11:21.250Z,3.40
2019-02-16T06:13:50.260Z,3.40
2019-02-16T06:16:19.361Z,3.40
2019-02-16T06:18:48.337Z,3.30
2019-02-16T06:21:17.289Z,3.30
2019-02-16T06:23:46.229Z,3.30
2019-02-16T06:26:15.183Z,3.30
2019-02-16T06:28:43.969Z,3.30
2019-02-16T06:31:12.681Z,3.30
2019-02-16T06:33:41.923Z,3.30
2019-02-16T06:36:45.368Z,3.30
2019-02-16T06:39:14.405Z,3.30
2019-02-16T06:41:43.592Z,3.30
2019-02-16T06:44:12.591Z,3.30
2019-02-16T06:46:41.645Z,3.30
2019-02-16T06:49:10.585Z,3.30
2019-02-16T06:51:39.288Z,3.30
2019-02-16T06:54:08.061Z,3.30
2019-02-16T06:56:55.882Z,3.30
2019-02-16T06:59:24.634Z,3.20
2019-02-16T07:01:53.332Z,3.20
2019-02-16T07:04:22.542Z,3.10
2019-02-16T07:06:51.282Z,3.20
2019-02-16T07:09:20.220Z,3.20
2019-02-16T07:11:49.457Z,3.20
2019-02-16T07:14:18.176Z,3.20
2019-02-16T07:16:53.039Z,3.30
2019-02-16T07:19:25.090Z,3.30
2019-02-16T07:21:54.081Z,3.30
2019-02-16T07:24:23.546Z,3.30
2019-02-16T07:26:52.277Z,3.30
2019-02-16T07:29:21.228Z,3.30
2019-02-16T07:31:49.949Z,3.30
2019-02-16T07:34:18.930Z,3.30
2019-02-16T07:36:47.968Z,3.30
2019-02-16T07:39:36.051Z,3.40
2019-02-16T07:42:04.762Z,3.40
2019-02-16T07:44:51.900Z,3.40
2019-02-16T07:47:57.768Z,3.40
2019-02-16T07:50:37.095Z,3.40
2019-02-16T07:53:15.587Z,3.40
2019-02-16T07:55:52.257Z,3.30
2019-02-16T07:58:30.195Z,3.40
2019-02-16T08:01:30.325Z,3.40
2019-02-16T08:04:19.494Z,3.40
2019-02-16T08:07:07.639Z,3.50
2019-02-16T08:09:59.862Z,3.50
2019-02-16T08:13:13.053Z,3.60
2019-02-16T08:15:53.707Z,3.70
2019-02-16T08:18:37.991Z,3.70
2019-02-16T08:21:18.281Z,3.90
2019-02-16T08:24:04.245Z,4.00
2019-02-16T08:26:52.049Z,4.10
2019-02-16T08:29:43.332Z,4.30
2019-02-16T08:32:21.894Z,4.50
2019-02-16T08:34:59.979Z,4.60
2019-02-16T08:37:48.328Z,4.80
2019-02-16T08:40:35.361Z,5.10
2019-02-16T08:43:23.791Z,5.30
2019-02-16T08:46:17.840Z,5.70
2019-02-16T08:48:57.423Z,6.00
2019-02-16T08:51:46.489Z,6.30
2019-02-16T08:54:26.885Z,6.70
2019-02-16T08:57:21.626Z,7.10
2019-02-16T09:00:15.404Z,7.40
2019-02-16T09:03:03.513Z,7.70
2019-02-16T09:05:56.312Z,8.10
2019-02-16T09:08:43.810Z,8.40
2019-02-16T09:11:49.988Z,8.70
2019-02-16T09:14:37.010Z,9.10
2019-02-16T09:17:23.036Z,9.40
2019-02-16T09:20:03.841Z,9.70
2019-02-16T09:22:56.731Z,10.00
2019-02-16T09:25:48.073Z,10.20
2019-02-16T09:28:35.380Z,10.50
2019-02-16T09:31:16.737Z,10.70
2019-02-16T09:33:56.212Z,11.00
2019-02-16T09:36:32.237Z,11.30
2019-02-16T09:39:19.686Z,11.60
2019-02-16T09:41:54.377Z,11.80
2019-02-16T09:44:30.510Z,12.10
2019-02-16T09:47:17.566Z,12.30
2019-02-16T09:50:12.025Z,12.50
2019-02-16T09:53:09.058Z,12.70
2019-02-16T09:55:57.597Z,12.90
2019-02-16T09:58:51.569Z,13.10
2019-02-16T10:01:51.665Z,13.20
2019-02-16T10:04:38.450Z,13.40
2019-02-16T10:07:30.528Z,13.50
2019-02-16T10:10:07.165Z,13.60
2019-02-16T10:12:47.439Z,13.80
2019-02-16T10:15:53.844Z,14.00
2019-02-16T10:18:40.524Z,14.10
2019-02-16T10:21:41.329Z,14.30
2019-02-16T10:24:26.483Z,14.40
2019-02-16T10:27:26.610Z,14.50
2019-02-16T10:30:23.318Z,14.70
2019-02-16T10:33:17.339Z,14.70
2019-02-16T10:36:02.870Z,14.90
2019-02-16T10:38:43.648Z,15.00
2019-02-16T10:41:19.988Z,15.10
2019-02-16T10:44:10.942Z,15.20
2019-02-16T10:46:51.953Z,15.30
2019-02-16T10:49:42.801Z,15.50
2019-02-16T10:52:33.748Z,15.60
2019-02-16T10:55:30.911Z,15.80
2019-02-16T10:58:18.898Z,16.00
2019-02-16T11:01:15.868Z,16.10
2019-02-16T11:04:12.685Z,16.20
2019-02-16T11:06:58.865Z,16.30
2019-02-16T11:09:34.337Z,16.40
2019-02-16T11:12:16.355Z,16.50
2019-02-16T11:14:55.864Z,16.60
2019-02-16T11:17:40.145Z,16.80
2019-02-16T11:20:34.064Z,17.00
2019-02-16T11:23:25.123Z,17.20
2019-02-16T11:26:22.045Z,17.30
2019-02-16T11:28:58.630Z,17.40
2019-02-16T11:31:46.209Z,17.50
2019-02-16T11:34:24.481Z,17.60
2019-02-16T11:37:02.256Z,17.80
2019-02-16T11:39:41.702Z,18.00
2019-02-16T11:42:35.831Z,18.10
2019-02-16T11:45:23.038Z,18.30
2019-02-16T11:48:01.551Z,18.60
2019-02-16T11:50:48.075Z,18.90
2019-02-16T11:53:36.171Z,19.20
2019-02-16T11:56:23.179Z,19.50
2019-02-16T11:59:12.725Z,19.60
2019-02-16T12:02:00.060Z,19.80
2019-02-16T12:04:44.578Z,20.00
2019-02-16T12:07:30.631Z,20.40
2019-02-16T12:10:08.007Z,20.50
2019-02-16T12:12:55.099Z,20.90
2019-02-16T12:15:45.348Z,21.30
2019-02-16T12:18:39.599Z,21.30
2019-02-16T12:21:27.683Z,21.30
2019-02-16T12:24:15.065Z,21.50
2019-02-16T12:26:57.811Z,21.50
2019-02-16T12:29:39.888Z,21.30
2019-02-16T12:32:26.256Z,21.50
2019-02-16T12:35:13.302Z,21.50
2019-02-16T12:38:07.370Z,21.50
2019-02-16T12:41:14.163Z,21.60
2019-02-16T12:44:05.294Z,21.60
2019-02-16T12:46:53.167Z,21.70
2019-02-16T12:49:30.333Z,22.00
2019-02-16T12:52:13.758Z,22.30
2019-02-16T12:54:55.384Z,22.60
2019-02-16T12:57:30.788Z,23.10
2019-02-16T13:00:15.351Z,23.20
2019-02-16T13:03:00.185Z,23.50
2019-02-16T13:05:55.085Z,24.00
2019-02-16T13:08:46.284Z,24.60
2019-02-16T13:11:21.844Z,24.90
2019-02-16T13:14:33.206Z,25.20
2019-02-16T13:17:33.684Z,25.40
2019-02-16T13:20:08.790Z,25.40
2019-02-16T13:22:43.551Z,25.50
2019-02-16T13:25:27.044Z,25.60
2019-02-16T13:28:03.567Z,25.70
2019-02-16T13:30:47.211Z,25.80
2019-02-16T13:33:26.928Z,25.60
2019-02-16T13:36:13.757Z,25.30
2019-02-16T13:39:04.918Z,25.10
2019-02-16T13:41:41.758Z,24.80
2019-02-16T13:44:32.709Z,24.50
2019-02-16T13:47:27.130Z,24.30
2019-02-16T13:50:20.373Z,24.10
2019-02-16T13:52:57.701Z,24.30
2019-02-16T13:55:37.311Z,24.20
2019-02-16T13:58:28.778Z,24.40
2019-02-16T14:01:26.220Z,24.60
2019-02-16T14:04:29.993Z,24.70
2019-02-16T14:07:05.542Z,24.40
2019-02-16T14:10:05.905Z,24.00
2019-02-16T14:13:12.498Z,23.90
2019-02-16T14:15:59.680Z,23.90
2019-02-16T14:18:28.630Z,24.00
2019-02-16T14:20:58.670Z,23.90
2019-02-16T14:23:28.522Z,23.90
2019-02-16T14:25:57.714Z,24.00
2019-02-16T14:28:26.857Z,24.10
2019-02-16T14:30:55.892Z,24.50
2019-02-16T14:33:24.660Z,24.70
2019-02-16T14:35:53.629Z,24.90
2019-02-16T14:38:56.799Z,25.10
2019-02-16T14:41:25.521Z,25.20
2019-02-16T14:43:54.561Z,25.40
2019-02-16T14:46:23.359Z,25.50
2019-02-16T14:48:52.338Z,25.60
2019-02-16T14:51:21.100Z,25.50
2019-02-16T14:53:49.845Z,25.60
2019-02-16T14:56:18.829Z,25.70
2019-02-16T14:58:47.815Z,26.10
2019-02-16T15:01:16.548Z,26.30
2019-02-16T15:03:45.524Z,26.60
2019-02-16T15:06:14.830Z,26.70
2019-02-16T15:08:43.561Z,26.70
2019-02-16T15:11:12.392Z,26.20
2019-02-16T15:13:41.158Z,25.60
2019-02-16T15:16:09.935Z,25.00
2019-02-16T15:18:38.850Z,24.30
2019-02-16T15:21:08.096Z,23.60
2019-02-16T15:23:38.591Z,23.00
2019-02-16T15:26:07.963Z,22.20
2019-02-16T15:28:37.276Z,21.50
2019-02-16T15:31:06.510Z,20.90
2019-02-16T15:33:35.804Z,20.50
2019-02-16T15:36:04.847Z,20.00
2019-02-16T15:38:33.615Z,19.60
2019-02-16T15:41:02.388Z,19.30
2019-02-16T15:43:31.148Z,18.90
2019-02-16T15:45:59.980Z,18.60
2019-02-16T15:48:29.214Z,18.30
2019-02-16T15:50:58.296Z,17.90
2019-02-16T15:53:27.924Z,17.60
2019-02-16T15:55:56.906Z,17.30
2019-02-16T15:58:25.667Z,17.00
2019-02-16T16:00:54.507Z,16.80
2019-02-16T16:03:23.523Z,16.70
2019-02-16T16:05:52.742Z,16.50
2019-02-16T16:08:43.821Z,16.40
2019-02-16T16:11:53.553Z,16.20
2019-02-16T16:15:00.312Z,16.10
2019-02-16T16:18:03.505Z,15.90
2019-02-16T16:20:38.754Z,15.60
2019-02-16T16:23:32.149Z,15.30
2019-02-16T16:26:23.339Z,14.70
2019-02-16T16:29:11.626Z,14.50
2019-02-16T16:31:48.674Z,14.20
2019-02-16T16:34:35.183Z,13.90
2019-02-16T16:37:35.009Z,13.70
2019-02-16T16:40:19.086Z,13.40
2019-02-16T16:42:57.925Z,13.00
2019-02-16T16:45:44.946Z,12.60
2019-02-16T16:48:23.853Z,12.40
2019-02-16T16:51:10.613Z,12.10
2019-02-16T16:53:47.339Z,12.00
2019-02-16T16:56:33.997Z,11.80
2019-02-16T16:59:15.982Z,11.60
2019-02-16T17:02:07.082Z,11.50
2019-02-16T17:04:53.764Z,11.40
2019-02-16T17:07:40.053Z,11.30
2019-02-16T17:10:27.383Z,11.10
2019-02-16T17:13:14.291Z,11.00
2019-02-16T17:16:01.666Z,10.90
2019-02-16T17:18:37.262Z,10.80
2019-02-16T17:21:24.020Z,10.70
2019-02-16T17:24:27.584Z,10.60
2019-02-16T17:30:19.193Z,10.30
2019-02-16T17:33:10.530Z,10.20
2019-02-16T17:36:07.750Z,10.10
2019-02-16T17:38:52.093Z,10.00
2019-02-16T17:41:29.556Z,9.90
2019-02-16T17:44:30.241Z,9.80
2019-02-16T17:47:13.926Z,9.70
2019-02-16T17:50:02.293Z,9.60
2019-02-16T17:52:42.549Z,9.50
2019-02-16T17:55:33.769Z,9.40
2019-02-16T17:58:22.628Z,9.30
2019-02-16T18:01:14.865Z,9.20
2019-02-16T18:04:02.373Z,9.10
2019-02-16T18:07:07.576Z,9.00
2019-02-16T18:09:49.223Z,8.90
2019-02-16T18:12:41.922Z,8.90
2019-02-16T18:15:33.267Z,8.70
2019-02-16T18:18:33.486Z,8.70
2019-02-16T18:21:16.615Z,8.60
2019-02-16T18:23:50.650Z,8.50
2019-02-16T18:27:02.778Z,8.40
2019-02-16T18:29:51.520Z,8.30
2019-02-16T18:32:48.232Z,8.30
2019-02-16T18:35:34.661Z,8.20
2019-02-16T18:38:16.806Z,8.10
2019-02-16T18:40:53.234Z,8.10
2019-02-16T18:43:33.056Z,8.00
2019-02-16T18:46:13.784Z,7.90
2019-02-16T18:48:50.736Z,7.90
2019-02-16T18:51:32.922Z,7.80
2019-02-16T18:54:19.708Z,7.70
2019-02-16T18:57:07.949Z,7.70
2019-02-16T18:59:50.197Z,7.70
2019-02-16T19:02:43.136Z,7.60
2019-02-16T19:05:50.029Z,7.50
2019-02-16T19:08:37.665Z,7.50
2019-02-16T19:11:27.638Z,7.40
2019-02-16T19:14:06.900Z,7.40
2019-02-16T19:16:54.936Z,7.30
2019-02-16T19:19:35.841Z,7.20
2019-02-16T19:22:22.838Z,7.20
2019-02-16T19:25:01.651Z,7.10
2019-02-16T19:27:48.498Z,7.00
2019-02-16T19:30:52.030Z,7.00
2019-02-16T19:33:49.228Z,6.90
2019-02-16T19:36:29.726Z,6.90
2019-02-16T19:39:29.932Z,6.80
2019-02-16T19:42:08.872Z,6.80
2019-02-16T19:44:57.045Z,6.80
2019-02-16T19:47:38.538Z,6.70
2019-02-16T19:50:35.948Z,6.70
2019-02-16T19:53:20.093Z,6.60
2019-02-16T19:56:17.136Z,6.60
2019-02-16T19:59:03.799Z,6.50
2019-02-16T20:01:55.231Z,6.50
2019-02-16T20:05:01.738Z,6.40
2019-02-16T20:07:40.718Z,6.30
2019-02-16T20:10:31.541Z,6.20
2019-02-16T20:13:22.326Z,6.20
2019-02-16T20:16:13.642Z,6.10
2019-02-16T20:19:01.728Z,6.10
2019-02-16T20:22:02.136Z,6.10
2019-02-16T20:24:44.190Z,6.00
2019-02-16T20:27:36.796Z,6.00
2019-02-16T20:30:19.771Z,5.90
2019-02-16T20:33:02.862Z,5.90
2019-02-16T20:35:57.031Z,5.90
2019-02-16T20:38:36.581Z,5.80
2019-02-16T20:41:28.205Z,5.80
2019-02-16T20:44:22.607Z,5.70
2019-02-16T20:47:07.683Z,5.70
2019-02-16T20:49:43.481Z,5.60
2019-02-16T20:52:25.363Z,5.60
2019-02-16T20:55:13.481Z,5.50
2019-02-16T20:58:01.577Z,5.50
2019-02-16T21:00:40.744Z,5.50
2019-02-16T21:03:27.661Z,5.40
2019-02-16T21:06:19.387Z,5.40
2019-02-16T21:09:19.797Z,5.30
2019-02-16T21:11:56.258Z,5.30
2019-02-16T21:14:31.472Z,5.30
2019-02-16T21:17:12.721Z,5.20
2019-02-16T21:19:51.950Z,5.20
2019-02-16T21:22:37.103Z,5.20
2019-02-16T21:25:23.757Z,5.10
2019-02-16T21:28:01.360Z,5.10
2019-02-16T21:30:47.428Z,5.10
2019-02-16T21:33:41.737Z,5.00
2019-02-16T21:36:25.336Z,5.00
2019-02-16T21:39:03.515Z,4.90
2019-02-16T21:41:46.355Z,4.90
2019-02-16T21:44:28.141Z,4.90
2019-02-16T21:47:06.519Z,4.90
2019-02-16T21:49:48.329Z,4.90
2019-02-16T21:52:48.917Z,4.80
2019-02-16T21:55:36.738Z,4.80
2019-02-16T21:58:28.320Z,4.80
2019-02-16T22:01:34.685Z,4.80
2019-02-16T22:04:31.013Z,4.80
2019-02-16T22:07:19.149Z,4.80
2019-02-16T22:10:15.804Z,4.80
2019-02-16T22:13:03.049Z,4.80
2019-02-16T22:15:35.285Z,4.70
2019-02-16T22:18:04.522Z,4.70
2019-02-16T22:20:33.945Z,4.70
2019-02-16T22:23:03.357Z,4.70
2019-02-16T22:25:32.559Z,4.70
2019-02-16T22:28:01.831Z,4.70
2019-02-16T22:30:32.501Z,4.70
2019-02-16T22:33:01.678Z,4.70
2019-02-16T22:35:31.753Z,4.70
2019-02-16T22:38:01.649Z,4.60
2019-02-16T22:40:30.911Z,4.60
2019-02-16T22:43:00.121Z,4.60
2019-02-16T22:45:29.126Z,4.60
2019-02-16T22:47:58.676Z,4.60
2019-02-16T22:50:28.093Z,4.60
2019-02-16T22:52:57.361Z,4.60
2019-02-16T22:55:26.773Z,4.60
2019-02-16T22:57:56.629Z,4.60
2019-02-16T23:00:37.219Z,4.60
2019-02-16T23:03:07.784Z,4.50
2019-02-16T23:05:37.218Z,4.50
2019-02-16T23:08:06.315Z,4.50
2019-02-16T23:10:35.433Z,4.40
2019-02-16T23:13:04.549Z,4.40
2019-02-16T23:15:33.596Z,4.40
2019-02-16T23:18:02.845Z,4.40
2019-02-16T23:20:32.271Z,4.40
2019-02-16T23:23:03.611Z,4.40
2019-02-16T23:25:32.636Z,4.30
2019-02-16T23:28:01.573Z,4.30
2019-02-16T23:30:30.521Z,4.30
2019-02-16T23:32:59.589Z,4.30
2019-02-16T23:35:31.644Z,4.30
2019-02-16T23:38:00.963Z,4.30
2019-02-16T23:40:30.190Z,4.30
2019-02-16T23:42:59.544Z,4.30
2019-02-16T23:45:29.357Z,4.30
2019-02-16T23:47:58.613Z,4.20
2019-02-16T23:50:28.413Z,4.20
2019-02-16T23:52:57.623Z,4.20
2019-02-16T23:55:27.206Z,4.20
2019-02-16T23:57:56.653Z,4.20
